createdAt,value
2022-11-23T00:00:49.347Z,3.89
2022-11-23T00:03:17.123Z,3.88
2022-11-23T00:05:44.877Z,3.87
2022-11-23T00:08:15.076Z,3.86
2022-11-23T00:10:42.968Z,3.84
2022-11-23T00:13:10.772Z,3.80
2022-11-23T00:15:42.159Z,3.80
2022-11-23T00:18:09.892Z,3.75
2022-11-23T00:20:40.515Z,3.75
2022-11-23T00:23:08.293Z,3.71
2022-11-23T00:25:37.455Z,3.67
2022-11-23T00:28:05.613Z,3.64
2022-11-23T00:30:35.972Z,3.64
2022-11-23T00:33:06.032Z,3.64
2022-11-23T00:35:33.899Z,3.63
2022-11-23T00:38:02.566Z,3.61
2022-11-23T00:40:30.320Z,3.60
2022-11-23T00:43:02.167Z,3.60
2022-11-23T00:45:30.169Z,3.61
2022-11-23T00:47:59.024Z,3.62
2022-11-23T00:50:27.924Z,3.63
2022-11-23T00:52:57.831Z,3.64
2022-11-23T00:55:25.607Z,3.65
2022-11-23T00:57:53.403Z,3.67
2022-11-23T01:00:23.095Z,3.68
2022-11-23T01:02:50.871Z,3.69
2022-11-23T01:05:22.191Z,3.71
2022-11-23T01:07:50.572Z,3.73
2022-11-23T01:10:18.376Z,3.72
2022-11-23T01:12:46.419Z,3.72
2022-11-23T01:15:15.359Z,3.72
2022-11-23T01:17:45.871Z,3.71
2022-11-23T01:20:13.653Z,3.71
2022-11-23T01:22:42.930Z,3.68
2022-11-23T01:25:13.738Z,3.65
2022-11-23T01:27:41.492Z,3.65
2022-11-23T01:30:11.800Z,3.62
2022-11-23T01:32:42.075Z,3.58
2022-11-23T01:35:11.417Z,3.58
2022-11-23T01:37:39.189Z,3.54
2022-11-23T01:40:10.519Z,3.53
2022-11-23T01:42:51.296Z,3.53
2022-11-23T01:45:40.039Z,3.54
2022-11-23T01:48:14.911Z,3.56
2022-11-23T01:50:45.629Z,3.58
2022-11-23T01:53:13.731Z,3.60
2022-11-23T01:55:44.095Z,3.62
2022-11-23T01:58:15.779Z,3.60
2022-11-23T02:00:47.000Z,3.60
2022-11-23T02:03:18.734Z,3.60
2022-11-23T02:05:50.279Z,3.58
2022-11-23T02:08:21.180Z,3.57
2022-11-23T02:10:51.871Z,3.58
2022-11-23T02:13:19.812Z,3.60
2022-11-23T02:15:47.594Z,3.60
2022-11-23T02:18:24.483Z,3.59
2022-11-23T02:20:54.852Z,3.57
2022-11-23T02:23:38.913Z,3.58
2022-11-23T02:26:11.235Z,3.57
2022-11-23T02:28:44.902Z,3.57
2022-11-23T02:31:12.772Z,3.54
2022-11-23T02:33:41.398Z,3.54
2022-11-23T02:36:42.370Z,3.51
2022-11-23T02:39:13.872Z,3.48
2022-11-23T02:41:45.269Z,3.43
2022-11-23T02:44:33.438Z,3.38
2022-11-23T02:47:01.386Z,3.39
2022-11-23T02:49:29.579Z,3.40
2022-11-23T02:51:57.787Z,3.35
2022-11-23T02:54:27.215Z,3.32
2022-11-23T02:56:56.903Z,3.30
2022-11-23T02:59:24.867Z,3.26
2022-11-23T03:01:54.091Z,3.23
2022-11-23T03:04:27.314Z,3.22
2022-11-23T03:06:55.522Z,3.17
2022-11-23T03:09:23.935Z,3.19
2022-11-23T03:11:51.788Z,3.20
2022-11-23T03:14:21.086Z,3.19
2022-11-23T03:16:54.598Z,3.17
2022-11-23T03:19:23.822Z,3.16
2022-11-23T03:21:52.706Z,3.18
2022-11-23T03:24:22.020Z,3.17
2022-11-23T03:26:52.973Z,3.15
2022-11-23T03:29:26.319Z,3.24
2022-11-23T03:31:55.352Z,3.27
2022-11-23T03:34:24.218Z,3.27
2022-11-23T03:36:52.493Z,3.17
2022-11-23T03:39:21.915Z,3.21
2022-11-23T03:42:12.888Z,3.34
2022-11-23T03:44:43.370Z,3.29
2022-11-23T03:47:12.030Z,3.23
2022-11-23T03:49:39.838Z,3.20
2022-11-23T03:52:09.233Z,3.21
2022-11-23T03:54:36.988Z,3.19
2022-11-23T03:57:05.109Z,3.20
2022-11-23T03:59:36.346Z,3.20
2022-11-23T04:02:05.980Z,3.23
2022-11-23T04:04:38.235Z,3.23
2022-11-23T04:07:10.565Z,3.25
2022-11-23T04:09:50.413Z,3.26
2022-11-23T04:12:29.543Z,3.28
2022-11-23T04:14:57.354Z,3.31
2022-11-23T04:17:27.106Z,3.31
2022-11-23T04:19:57.343Z,3.33
2022-11-23T04:22:25.282Z,3.36
2022-11-23T04:24:56.448Z,3.37
2022-11-23T04:27:24.207Z,3.41
2022-11-23T04:29:52.108Z,3.42
2022-11-23T04:32:20.568Z,3.44
2022-11-23T04:34:52.369Z,3.43
2022-11-23T04:37:20.245Z,3.44
2022-11-23T04:39:48.223Z,3.46
2022-11-23T04:42:21.171Z,3.46
2022-11-23T04:45:02.498Z,3.46
2022-11-23T04:47:31.354Z,3.48
2022-11-23T04:50:06.154Z,3.49
2022-11-23T04:52:34.749Z,3.51
2022-11-23T04:55:19.544Z,3.51
2022-11-23T04:57:55.893Z,3.51
2022-11-23T05:00:26.239Z,3.51
2022-11-23T05:03:01.410Z,3.51
2022-11-23T05:05:37.789Z,3.50
2022-11-23T05:08:05.947Z,3.51
2022-11-23T05:11:06.261Z,3.51
2022-11-23T05:13:34.256Z,3.52
2022-11-23T05:16:03.021Z,3.52
2022-11-23T05:18:32.252Z,3.53
2022-11-23T05:21:01.373Z,3.52
2022-11-23T05:23:31.917Z,3.54
2022-11-23T05:26:07.957Z,3.54
2022-11-23T05:28:40.567Z,3.54
2022-11-23T05:31:11.467Z,3.54
2022-11-23T05:33:39.361Z,3.54
2022-11-23T05:36:15.147Z,3.56
2022-11-23T05:38:43.535Z,3.56
2022-11-23T05:41:16.563Z,3.55
2022-11-23T05:43:47.317Z,3.55
2022-11-23T05:46:23.618Z,3.56
2022-11-23T05:48:51.351Z,3.57
2022-11-23T05:51:20.510Z,3.57
2022-11-23T05:53:50.545Z,3.56
2022-11-23T05:56:34.658Z,3.58
2022-11-23T05:59:09.599Z,3.57
2022-11-23T06:01:40.443Z,3.59
2022-11-23T06:04:10.307Z,3.58
2022-11-23T06:06:43.886Z,3.58
2022-11-23T06:09:11.938Z,3.60
2022-11-23T06:11:45.030Z,3.60
2022-11-23T06:14:17.643Z,3.60
2022-11-23T06:16:47.259Z,3.59
2022-11-23T06:19:42.206Z,3.61
2022-11-23T06:22:11.453Z,3.60
2022-11-23T06:24:45.781Z,3.61
2022-11-23T06:27:33.755Z,3.61
2022-11-23T06:30:08.547Z,3.63
2022-11-23T06:32:37.911Z,3.63
2022-11-23T06:35:06.127Z,3.62
2022-11-23T06:37:38.340Z,3.62
2022-11-23T06:40:10.151Z,3.61
2022-11-23T06:42:39.820Z,3.62
2022-11-23T06:45:17.259Z,3.61
2022-11-23T06:47:47.192Z,3.62
2022-11-23T06:50:17.390Z,3.64
2022-11-23T06:52:56.499Z,3.70
2022-11-23T06:55:33.365Z,3.69
2022-11-23T06:58:01.292Z,3.71
2022-11-23T07:00:31.570Z,3.69
2022-11-23T07:03:00.449Z,3.70
2022-11-23T07:05:33.694Z,3.70
2022-11-23T07:08:03.066Z,3.72
2022-11-23T07:10:33.267Z,3.74
2022-11-23T07:13:06.126Z,3.77
2022-11-23T07:15:34.739Z,3.78
2022-11-23T07:18:05.058Z,3.81
2022-11-23T07:20:33.939Z,3.84
2022-11-23T07:23:05.399Z,3.87
2022-11-23T07:25:35.028Z,3.90
2022-11-23T07:28:08.146Z,3.94
2022-11-23T07:30:38.079Z,3.97
2022-11-23T07:33:14.166Z,3.98
2022-11-23T07:35:45.468Z,4.03
2022-11-23T07:38:16.279Z,4.07
2022-11-23T07:40:44.378Z,4.11
2022-11-23T07:43:26.935Z,4.15
2022-11-23T07:45:58.551Z,4.18
2022-11-23T07:48:26.340Z,4.23
2022-11-23T07:50:56.006Z,4.27
2022-11-23T07:53:25.204Z,4.31
2022-11-23T07:55:56.755Z,4.37
2022-11-23T07:58:25.760Z,4.42
2022-11-23T08:00:53.923Z,4.48
2022-11-23T08:03:30.099Z,4.52
2022-11-23T08:05:58.782Z,4.57
2022-11-23T08:08:30.396Z,4.63
2022-11-23T08:10:58.127Z,4.71
2022-11-23T08:13:25.978Z,4.77
2022-11-23T08:15:55.808Z,4.81
2022-11-23T08:18:24.612Z,4.89
2022-11-23T08:20:54.992Z,4.94
2022-11-23T08:23:27.827Z,5.01
2022-11-23T08:25:57.210Z,5.08
2022-11-23T08:28:26.496Z,5.16
2022-11-23T08:30:55.346Z,5.24
2022-11-23T08:33:25.486Z,5.32
2022-11-23T08:35:55.572Z,5.47
2022-11-23T08:38:23.358Z,5.59
2022-11-23T08:40:53.255Z,5.74
2022-11-23T08:43:23.959Z,5.84
2022-11-23T08:46:02.204Z,5.91
2022-11-23T08:48:34.629Z,5.98
2022-11-23T08:51:02.420Z,6.02
2022-11-23T08:53:30.207Z,6.05
2022-11-23T08:56:01.519Z,6.06
2022-11-23T08:58:30.815Z,6.05
2022-11-23T09:00:58.680Z,6.06
2022-11-23T09:03:26.463Z,6.07
2022-11-23T09:05:54.658Z,6.08
2022-11-23T09:08:23.754Z,6.10
2022-11-23T09:10:53.670Z,6.11
2022-11-23T09:13:21.581Z,6.12
2022-11-23T09:15:50.646Z,6.18
2022-11-23T09:18:19.378Z,6.22
2022-11-23T09:20:47.090Z,6.26
2022-11-23T09:23:14.851Z,6.31
2022-11-23T09:25:43.286Z,6.37
2022-11-23T09:28:12.675Z,6.39
2022-11-23T09:30:40.496Z,6.42
2022-11-23T09:33:10.682Z,6.47
2022-11-23T09:35:43.623Z,6.50
2022-11-23T09:38:13.148Z,6.53
2022-11-23T09:40:44.506Z,6.56
2022-11-23T09:43:35.198Z,6.57
2022-11-23T09:46:14.344Z,6.58
2022-11-23T09:48:58.744Z,6.61
2022-11-23T09:51:27.335Z,6.65
2022-11-23T09:54:00.154Z,6.68
2022-11-23T09:56:31.170Z,6.73
2022-11-23T09:59:02.411Z,6.77
2022-11-23T10:01:31.630Z,6.76
2022-11-23T10:04:01.154Z,6.77
2022-11-23T10:06:32.574Z,6.77
2022-11-23T10:09:13.778Z,6.84
2022-11-23T10:12:09.886Z,6.89
2022-11-23T10:14:50.875Z,7.04
2022-11-23T10:17:30.730Z,7.05
2022-11-23T10:20:20.770Z,7.03
2022-11-23T10:22:58.418Z,7.03
2022-11-23T10:25:36.092Z,7.03
2022-11-23T10:28:15.086Z,7.00
2022-11-23T10:30:43.497Z,6.97
2022-11-23T10:33:23.552Z,6.92
2022-11-23T10:35:52.621Z,6.92
2022-11-23T10:38:22.297Z,6.94
2022-11-23T10:41:01.976Z,7.05
2022-11-23T10:43:34.724Z,7.18
2022-11-23T10:46:26.538Z,7.26
2022-11-23T10:48:55.006Z,7.36
2022-11-23T10:51:30.989Z,7.44
2022-11-23T10:54:05.131Z,7.50
2022-11-23T10:56:34.149Z,7.52
2022-11-23T10:59:02.444Z,7.51
2022-11-23T11:01:31.268Z,7.53
2022-11-23T11:04:05.326Z,7.57
2022-11-23T11:06:40.574Z,7.65
2022-11-23T11:09:20.901Z,7.79
2022-11-23T11:11:54.746Z,7.88
2022-11-23T11:14:23.792Z,7.98
2022-11-23T11:16:55.389Z,8.03
2022-11-23T11:19:30.520Z,8.15
2022-11-23T11:22:01.241Z,8.19
2022-11-23T11:24:34.389Z,8.33
2022-11-23T11:27:07.190Z,8.35
2022-11-23T11:29:47.678Z,8.37
2022-11-23T11:32:22.085Z,8.41
2022-11-23T11:34:56.279Z,8.50
2022-11-23T11:37:33.578Z,8.55
2022-11-23T11:40:11.086Z,8.57
2022-11-23T11:42:42.828Z,8.65
2022-11-23T11:45:22.614Z,8.68
2022-11-23T11:47:58.504Z,8.71
2022-11-23T11:50:31.681Z,8.68
2022-11-23T11:53:07.213Z,8.66
2022-11-23T11:55:49.505Z,8.69
2022-11-23T11:58:18.864Z,8.74
2022-11-23T12:00:49.867Z,8.77
2022-11-23T12:03:24.074Z,8.82
2022-11-23T12:05:55.069Z,8.92
2022-11-23T12:08:34.222Z,8.93
2022-11-23T12:11:05.765Z,8.92
2022-11-23T12:13:35.198Z,8.97
2022-11-23T12:16:18.738Z,9.05
2022-11-23T12:19:08.090Z,9.15
2022-11-23T12:22:12.095Z,9.15
2022-11-23T12:24:58.806Z,9.19
2022-11-23T12:27:35.880Z,9.17
2022-11-23T12:30:26.155Z,9.10
2022-11-23T12:33:20.439Z,9.03
2022-11-23T12:36:08.338Z,8.89
2022-11-23T12:38:48.141Z,8.85
2022-11-23T12:41:29.378Z,8.86
2022-11-23T12:44:31.439Z,8.86
2022-11-23T12:47:08.513Z,8.84
2022-11-23T12:49:42.775Z,8.85
2022-11-23T12:52:29.482Z,8.87
2022-11-23T12:55:19.438Z,8.98
2022-11-23T12:58:01.823Z,9.03
2022-11-23T13:00:35.825Z,9.05
2022-11-23T13:03:41.872Z,9.10
2022-11-23T13:06:40.002Z,9.11
2022-11-23T13:09:25.221Z,9.08
2022-11-23T13:12:14.771Z,9.07
2022-11-23T13:14:55.961Z,9.07
2022-11-23T13:17:36.186Z,9.12
2022-11-23T13:20:41.890Z,9.12
2022-11-23T13:23:10.272Z,9.03
2022-11-23T13:25:38.166Z,8.93
2022-11-23T13:28:09.394Z,8.89
2022-11-23T13:33:38.644Z,8.65
2022-11-23T13:36:16.647Z,8.59
2022-11-23T13:38:47.396Z,8.48
2022-11-23T13:41:54.959Z,8.41
2022-11-23T13:44:26.157Z,8.34
2022-11-23T13:47:22.485Z,8.29
2022-11-23T13:49:51.820Z,8.26
2022-11-23T13:52:29.054Z,8.24
2022-11-23T13:55:07.356Z,8.18
2022-11-23T13:57:38.906Z,8.13
2022-11-23T14:00:44.926Z,8.08
2022-11-23T14:03:50.208Z,7.99
2022-11-23T14:06:26.979Z,7.94
2022-11-23T14:09:08.636Z,7.90
2022-11-23T14:11:43.274Z,7.88
2022-11-23T14:14:24.377Z,7.83
2022-11-23T14:17:12.377Z,7.77
2022-11-23T14:19:55.154Z,7.74
2022-11-23T14:22:37.376Z,7.70
2022-11-23T14:25:24.458Z,7.67
2022-11-23T14:28:06.178Z,7.62
2022-11-23T14:30:46.421Z,7.58
2022-11-23T14:33:33.971Z,7.54
2022-11-23T14:36:13.947Z,7.48
2022-11-23T14:39:10.992Z,7.43
2022-11-23T14:41:42.232Z,7.37
2022-11-23T14:44:16.849Z,7.33
2022-11-23T14:47:02.862Z,7.28
2022-11-23T14:49:32.075Z,7.25
2022-11-23T14:52:05.100Z,7.20
2022-11-23T14:54:34.171Z,7.15
2022-11-23T14:57:07.106Z,7.10
2022-11-23T14:59:39.860Z,7.02
2022-11-23T15:02:20.150Z,6.97
2022-11-23T15:05:04.138Z,6.91
2022-11-23T15:07:47.523Z,6.86
2022-11-23T15:10:42.198Z,6.79
2022-11-23T15:13:23.208Z,6.72
2022-11-23T15:15:57.475Z,6.65
2022-11-23T15:18:32.766Z,6.57
2022-11-23T15:21:03.430Z,6.46
2022-11-23T15:23:38.317Z,6.33
2022-11-23T15:26:34.561Z,6.04
2022-11-23T15:29:03.741Z,5.95
2022-11-23T15:31:37.966Z,5.91
2022-11-23T15:34:14.599Z,5.78
2022-11-23T15:36:44.317Z,5.45
2022-11-23T15:39:23.857Z,5.25
2022-11-23T15:41:53.405Z,5.14
2022-11-23T15:44:25.965Z,5.07
2022-11-23T15:47:00.058Z,4.97
2022-11-23T15:49:28.428Z,4.91
2022-11-23T15:52:05.771Z,4.90
2022-11-23T15:54:36.984Z,4.80
2022-11-23T15:57:12.403Z,4.63
2022-11-23T15:59:44.059Z,4.54
2022-11-23T16:02:20.735Z,4.45
2022-11-23T16:04:48.568Z,4.36
2022-11-23T16:07:20.017Z,4.32
2022-11-23T16:09:53.600Z,4.30
2022-11-23T16:12:26.660Z,4.32
2022-11-23T16:14:59.356Z,4.32
2022-11-23T16:17:29.014Z,4.28
2022-11-23T16:19:58.679Z,4.23
2022-11-23T16:22:34.299Z,4.22
2022-11-23T16:25:07.839Z,4.17
2022-11-23T16:27:38.172Z,4.03
2022-11-23T16:30:09.329Z,3.86
2022-11-23T16:32:37.716Z,3.84
2022-11-23T16:35:19.349Z,3.83
2022-11-23T16:37:48.486Z,3.81
2022-11-23T16:40:19.951Z,3.69
2022-11-23T16:42:53.453Z,3.59
2022-11-23T16:45:23.348Z,3.47
2022-11-23T16:47:53.901Z,3.42
2022-11-23T16:50:24.333Z,3.41
2022-11-23T16:52:52.934Z,3.35
2022-11-23T16:55:24.674Z,3.29
2022-11-23T16:57:52.438Z,3.24
2022-11-23T17:00:23.397Z,3.18
2022-11-23T17:02:51.302Z,3.11
2022-11-23T17:05:21.261Z,3.10
2022-11-23T17:07:50.916Z,3.11
2022-11-23T17:10:18.801Z,2.97
2022-11-23T17:12:52.651Z,2.93
2022-11-23T17:15:22.516Z,2.92
2022-11-23T17:17:50.673Z,2.91
2022-11-23T17:20:20.441Z,2.90
2022-11-23T17:22:51.680Z,2.84
2022-11-23T17:25:21.889Z,2.83
2022-11-23T17:27:52.874Z,2.77
2022-11-23T17:30:22.562Z,2.81
2022-11-23T17:32:53.962Z,2.79
2022-11-23T17:35:25.490Z,2.80
2022-11-23T17:37:53.603Z,2.84
2022-11-23T17:40:25.863Z,2.80
2022-11-23T17:42:54.972Z,2.86
2022-11-23T17:45:23.088Z,2.89
2022-11-23T17:47:51.048Z,2.93
2022-11-23T17:50:20.246Z,2.92
2022-11-23T17:52:48.690Z,2.99
2022-11-23T17:55:17.360Z,2.96
2022-11-23T17:57:45.143Z,3.05
2022-11-23T18:00:20.957Z,3.07
2022-11-23T18:02:52.788Z,3.14
2022-11-23T18:05:22.104Z,3.16
2022-11-23T18:07:51.056Z,3.16
2022-11-23T18:10:19.633Z,3.18
2022-11-23T18:12:48.075Z,3.28
2022-11-23T18:15:18.593Z,3.38
2022-11-23T18:17:46.692Z,3.41
2022-11-23T18:20:15.542Z,3.42
2022-11-23T18:22:43.301Z,3.44
2022-11-23T18:25:12.270Z,3.53
2022-11-23T18:27:44.560Z,3.51
2022-11-23T18:30:13.428Z,3.62
2022-11-23T18:32:45.050Z,3.71
2022-11-23T18:35:14.851Z,3.71
2022-11-23T18:37:44.630Z,3.74
2022-11-23T18:40:15.216Z,3.79
2022-11-23T18:42:43.039Z,3.93
2022-11-23T18:45:11.338Z,4.12
2022-11-23T18:47:39.951Z,4.28
2022-11-23T18:50:09.709Z,4.41
2022-11-23T18:52:38.814Z,4.49
2022-11-23T18:55:07.487Z,4.56
2022-11-23T18:57:35.386Z,4.65
2022-11-23T19:00:05.878Z,4.72
2022-11-23T19:02:34.216Z,4.73
2022-11-23T19:05:01.948Z,4.82
2022-11-23T19:07:31.135Z,4.83
2022-11-23T19:09:58.891Z,4.82
2022-11-23T19:12:26.622Z,4.91
2022-11-23T19:14:54.336Z,4.87
2022-11-23T19:17:22.032Z,4.88
2022-11-23T19:19:49.897Z,4.80
2022-11-23T19:22:17.643Z,4.85
2022-11-23T19:24:46.744Z,4.86
2022-11-23T19:27:14.534Z,4.83
2022-11-23T19:29:42.346Z,4.76
2022-11-23T19:32:10.082Z,4.73
2022-11-23T19:34:40.295Z,4.73
2022-11-23T19:37:08.072Z,4.68
2022-11-23T19:39:36.194Z,4.65
2022-11-23T19:42:06.766Z,4.64
2022-11-23T19:44:34.515Z,4.65
2022-11-23T19:47:05.192Z,4.58
2022-11-23T19:49:37.158Z,4.60
2022-11-23T19:52:06.287Z,4.57
2022-11-23T19:54:34.105Z,4.60
2022-11-23T19:57:03.817Z,4.59
2022-11-23T19:59:37.748Z,4.55
2022-11-23T20:02:07.911Z,4.51
2022-11-23T20:04:35.840Z,4.47
2022-11-23T20:07:03.600Z,4.48
2022-11-23T20:09:36.051Z,4.46
2022-11-23T20:12:08.754Z,4.43
2022-11-23T20:14:43.943Z,4.37
2022-11-23T20:17:12.423Z,4.34
2022-11-23T20:19:40.274Z,4.34
2022-11-23T20:22:08.943Z,4.37
2022-11-23T20:24:36.848Z,4.33
2022-11-23T20:27:04.768Z,4.38
2022-11-23T20:29:32.893Z,4.32
2022-11-23T20:32:02.245Z,4.29
2022-11-23T20:34:30.020Z,4.26
2022-11-23T20:37:00.140Z,4.22
2022-11-23T20:39:27.930Z,4.24
2022-11-23T20:41:55.676Z,4.32
2022-11-23T20:44:30.755Z,4.26
2022-11-23T20:47:04.444Z,4.28
2022-11-23T20:49:33.338Z,4.29
2022-11-23T20:52:01.703Z,4.38
2022-11-23T20:54:29.503Z,4.43
2022-11-23T20:57:00.776Z,4.40
2022-11-23T20:59:28.751Z,4.34
2022-11-23T21:01:56.695Z,4.32
2022-11-23T21:04:33.869Z,4.37
2022-11-23T21:07:02.273Z,4.41
2022-11-23T21:09:30.046Z,4.37
2022-11-23T21:12:15.203Z,4.37
2022-11-23T21:14:43.007Z,4.37
2022-11-23T21:17:10.830Z,4.46
2022-11-23T21:19:40.765Z,4.44
2022-11-23T21:22:10.499Z,4.45
2022-11-23T21:24:38.688Z,4.52
2022-11-23T21:27:08.067Z,4.55
2022-11-23T21:29:35.911Z,4.59
2022-11-23T21:32:03.707Z,4.56
2022-11-23T21:34:32.481Z,4.62
2022-11-23T21:37:02.053Z,4.67
2022-11-23T21:39:31.803Z,4.81
2022-11-23T21:41:59.901Z,4.90
2022-11-23T21:44:27.700Z,4.94
2022-11-23T21:46:55.713Z,5.00
2022-11-23T21:49:23.484Z,5.07
2022-11-23T21:51:51.252Z,5.15
2022-11-23T21:54:20.329Z,5.17
2022-11-23T21:56:48.470Z,5.26
2022-11-23T21:59:16.200Z,5.35
2022-11-23T22:01:44.164Z,5.39
2022-11-23T22:04:13.482Z,5.44
2022-11-23T22:06:44.234Z,5.50
2022-11-23T22:09:13.077Z,5.54
2022-11-23T22:11:44.075Z,5.53
2022-11-23T22:14:13.923Z,5.55
2022-11-23T22:16:43.015Z,5.61
2022-11-23T22:19:12.315Z,5.73
2022-11-23T22:21:41.313Z,5.77
2022-11-23T22:24:12.629Z,5.79
2022-11-23T22:26:40.345Z,5.74
2022-11-23T22:29:10.536Z,5.77
2022-11-23T22:31:38.820Z,5.81
2022-11-23T22:34:09.747Z,5.84
2022-11-23T22:36:37.520Z,5.86
2022-11-23T22:39:07.049Z,5.89
2022-11-23T22:41:37.060Z,5.93
2022-11-23T22:44:06.943Z,5.96
2022-11-23T22:46:36.315Z,5.96
2022-11-23T22:49:04.458Z,5.96
2022-11-23T22:51:32.181Z,6.00
2022-11-23T22:54:01.431Z,6.00
2022-11-23T22:56:30.583Z,6.01
2022-11-23T22:58:58.490Z,6.04
2022-11-23T23:01:28.012Z,6.03
2022-11-23T23:03:58.647Z,6.02
2022-11-23T23:06:28.341Z,6.02
2022-11-23T23:08:57.309Z,6.02
2022-11-23T23:11:26.053Z,6.03
2022-11-23T23:13:54.170Z,6.03
2022-11-23T23:16:22.428Z,6.04
2022-11-23T23:18:51.393Z,6.02
2022-11-23T23:21:22.415Z,6.03
2022-11-23T23:23:51.581Z,6.05
2022-11-23T23:26:20.845Z,6.02
2022-11-23T23:28:49.193Z,6.02
2022-11-23T23:31:18.491Z,6.03
2022-11-23T23:33:46.906Z,6.04
2022-11-23T23:36:16.158Z,5.99
2022-11-23T23:38:45.574Z,6.03
2022-11-23T23:41:14.328Z,6.02
2022-11-23T23:43:42.754Z,6.01
2022-11-23T23:46:12.820Z,6.00
2022-11-23T23:48:41.736Z,6.05
2022-11-23T23:51:11.518Z,6.06
2022-11-23T23:53:40.017Z,6.04
2022-11-23T23:56:14.434Z,6.01
2022-11-23T23:58:42.393Z,6.04
